createdAt,value
2023-05-23T00:01:44.048Z,100229.44
2023-05-23T00:04:48.302Z,100209.41
2023-05-23T00:07:52.379Z,100236.06
2023-05-23T00:10:56.483Z,100210.06
2023-05-23T00:14:01.988Z,100225.44
2023-05-23T00:17:06.605Z,100201.09
2023-05-23T00:20:12.800Z,100200.56
2023-05-23T00:23:19.957Z,100218.59
2023-05-23T00:26:24.977Z,100212.50
2023-05-23T00:29:28.793Z,100226.81
2023-05-23T00:32:33.162Z,100213.88
2023-05-23T00:35:37.365Z,100222.09
2023-05-23T00:38:41.801Z,100217.25
2023-05-23T00:41:52.210Z,100229.38
2023-05-23T00:44:57.473Z,100176.16
2023-05-23T00:48:02.417Z,100207.19
2023-05-23T00:51:06.899Z,100233.06
2023-05-23T00:54:11.773Z,100228.03
2023-05-23T00:57:16.094Z,100239.53
2023-05-23T01:00:21.390Z,100212.19
2023-05-23T01:03:29.549Z,100229.47
2023-05-23T01:06:34.236Z,100224.84
2023-05-23T01:13:08.239Z,100211.25
2023-05-23T01:16:31.337Z,100192.81
2023-05-23T01:20:01.473Z,100192.06
2023-05-23T01:23:26.839Z,100204.44
2023-05-23T01:26:37.039Z,100211.91
2023-05-23T01:29:53.389Z,100133.16
2023-05-23T01:32:59.621Z,100192.63
2023-05-23T01:36:04.660Z,100188.38
2023-05-23T01:39:09.041Z,100177.81
2023-05-23T01:42:13.708Z,100170.97
2023-05-23T01:45:18.851Z,100157.69
2023-05-23T01:48:24.947Z,100157.66
2023-05-23T01:51:29.776Z,100146.66
2023-05-23T01:54:36.227Z,100170.16
2023-05-23T01:57:40.948Z,100164.97
2023-05-23T02:00:45.309Z,100147.72
2023-05-23T02:03:49.875Z,100135.47
2023-05-23T02:06:53.941Z,100141.63
2023-05-23T02:09:58.054Z,100114.78
2023-05-23T02:13:02.366Z,100132.63
2023-05-23T02:16:06.954Z,100133.47
2023-05-23T02:19:11.464Z,100145.09
2023-05-23T02:22:16.151Z,100138.75
2023-05-23T02:25:20.454Z,100121.38
2023-05-23T02:28:24.862Z,100093.75
2023-05-23T02:31:29.163Z,100109.13
2023-05-23T02:34:33.645Z,100106.16
2023-05-23T02:37:38.317Z,100110.59
2023-05-23T02:40:42.476Z,100111.44
2023-05-23T02:43:48.416Z,100119.19
2023-05-23T02:46:53.593Z,100105.59
2023-05-23T02:50:00.529Z,100105.13
2023-05-23T02:53:06.326Z,100106.75
2023-05-23T02:56:11.198Z,100096.47
2023-05-23T02:59:18.865Z,100099.78
2023-05-23T03:02:23.243Z,100079.16
2023-05-23T03:05:28.113Z,100093.16
2023-05-23T03:08:32.119Z,100081.81
2023-05-23T03:11:36.186Z,100067.47
2023-05-23T03:14:42.939Z,100069.47
2023-05-23T03:17:47.045Z,100081.84
2023-05-23T03:20:56.121Z,100064.09
2023-05-23T03:24:01.423Z,100073.41
2023-05-23T03:27:07.280Z,100062.53
2023-05-23T03:30:12.221Z,100068.44
2023-05-23T03:33:16.897Z,100071.59
2023-05-23T03:36:21.031Z,100061.47
2023-05-23T03:39:25.914Z,100039.72
2023-05-23T03:42:30.241Z,100043.44
2023-05-23T03:45:35.106Z,100045.75
2023-05-23T03:48:43.122Z,100050.97
2023-05-23T03:51:47.396Z,100020.00
2023-05-23T03:54:54.002Z,100016.84
2023-05-23T03:57:58.624Z,99992.00
2023-05-23T04:05:53.269Z,99995.63
2023-05-23T04:09:09.707Z,100000.56
2023-05-23T04:12:20.249Z,100023.75
2023-05-23T04:15:27.200Z,100017.84
2023-05-23T04:18:42.416Z,100000.84
2023-05-23T04:21:57.566Z,100004.72
2023-05-23T04:25:14.787Z,99997.44
2023-05-23T04:28:35.050Z,99999.44
2023-05-23T04:31:52.751Z,99991.16
2023-05-23T04:35:12.893Z,100002.81
2023-05-23T04:38:23.059Z,99995.19
2023-05-23T04:41:37.736Z,99968.78
2023-05-23T04:44:50.974Z,99927.19
2023-05-23T04:48:00.139Z,99977.41
2023-05-23T04:51:32.125Z,99982.38
2023-05-23T04:54:57.712Z,99978.41
2023-05-23T04:58:07.268Z,99972.66
2023-05-23T05:01:16.365Z,99973.66
2023-05-23T05:04:21.531Z,99937.69
2023-05-23T05:07:25.945Z,99966.81
2023-05-23T05:10:30.055Z,99964.16
2023-05-23T05:13:34.384Z,99972.41
2023-05-23T05:16:38.873Z,99961.75
2023-05-23T05:19:43.035Z,99978.03
2023-05-23T05:22:49.927Z,99960.16
2023-05-23T05:25:54.759Z,99932.06
2023-05-23T05:28:59.725Z,99981.28
2023-05-23T05:32:04.271Z,99979.69
2023-05-23T05:35:09.628Z,99967.28
2023-05-23T05:38:13.615Z,99949.28
2023-05-23T05:41:18.383Z,99975.50
2023-05-23T05:44:26.031Z,99969.31
2023-05-23T05:47:31.799Z,99937.38
2023-05-23T05:50:36.087Z,99958.59
2023-05-23T05:53:40.503Z,99959.00
2023-05-23T05:56:44.619Z,99936.34
2023-05-23T05:59:48.873Z,99932.56
2023-05-23T06:02:53.090Z,99920.91
2023-05-23T06:06:09.845Z,99890.81
2023-05-23T06:09:16.630Z,99914.34
2023-05-23T06:12:22.016Z,99927.63
2023-05-23T06:15:26.540Z,99931.22
2023-05-23T06:18:30.738Z,99947.59
2023-05-23T06:21:35.131Z,99877.56
2023-05-23T06:24:42.643Z,99932.56
2023-05-23T06:27:47.311Z,99912.13
2023-05-23T06:30:51.444Z,99937.19
2023-05-23T06:33:55.553Z,99933.91
2023-05-23T06:36:59.722Z,99906.88
2023-05-23T06:40:04.146Z,99913.25
2023-05-23T06:43:09.025Z,99895.09
2023-05-23T06:46:21.546Z,99911.59
2023-05-23T06:49:26.583Z,99917.25
2023-05-23T06:52:30.740Z,99900.31
2023-05-23T06:55:35.841Z,99892.25
2023-05-23T06:58:43.017Z,99859.34
2023-05-23T07:01:48.551Z,99870.75
2023-05-23T07:04:52.722Z,99905.56
2023-05-23T07:08:16.818Z,99915.88
2023-05-23T07:11:36.492Z,99919.06
2023-05-23T07:14:41.395Z,99904.31
2023-05-23T07:17:47.205Z,99903.25
2023-05-23T07:20:51.958Z,99908.84
2023-05-23T07:23:57.099Z,99887.50
2023-05-23T07:27:01.369Z,99901.72
2023-05-23T07:30:08.225Z,99891.09
2023-05-23T07:33:15.228Z,99884.97
2023-05-23T07:36:23.202Z,99889.19
2023-05-23T07:39:28.900Z,99851.25
2023-05-23T07:42:34.530Z,99876.16
2023-05-23T07:45:39.046Z,99881.53
2023-05-23T07:48:45.854Z,99861.66
2023-05-23T07:51:50.571Z,99873.28
2023-05-23T07:54:54.813Z,99873.00
2023-05-23T07:57:59.434Z,99845.16
2023-05-23T08:01:06.492Z,99865.88
2023-05-23T08:04:30.108Z,99865.63
2023-05-23T08:07:33.906Z,99870.97
2023-05-23T08:10:41.145Z,99880.31
2023-05-23T08:22:16.620Z,99737.22
2023-05-23T08:26:00.998Z,99802.78
2023-05-23T08:29:19.144Z,99847.25
2023-05-23T08:32:24.123Z,99871.28
2023-05-23T08:35:30.099Z,99823.72
2023-05-23T08:38:34.327Z,99859.03
2023-05-23T08:41:53.624Z,99859.50
2023-05-23T08:45:03.857Z,99866.88
2023-05-23T08:48:14.467Z,99864.56
2023-05-23T08:51:27.697Z,99863.69
2023-05-23T08:54:36.306Z,99875.78
2023-05-23T08:57:44.673Z,99877.75
2023-05-23T09:01:19.286Z,99853.75
2023-05-23T09:04:26.833Z,99876.81
2023-05-23T09:07:35.855Z,99867.53
2023-05-23T09:10:48.968Z,99886.06
2023-05-23T09:13:53.726Z,99885.59
2023-05-23T09:17:04.739Z,99866.13
2023-05-23T09:20:18.234Z,99876.91
2023-05-23T09:23:36.013Z,99885.13
2023-05-23T09:27:04.882Z,99868.59
2023-05-23T09:30:11.025Z,99891.59
2023-05-23T09:33:16.221Z,99865.59
2023-05-23T09:36:20.738Z,99894.75
2023-05-23T09:39:25.586Z,99892.06
2023-05-23T09:42:37.774Z,99837.09
2023-05-23T09:45:42.686Z,99883.47
2023-05-23T09:48:54.813Z,99849.75
2023-05-23T09:52:00.006Z,99884.41
2023-05-23T09:55:04.364Z,99905.16
2023-05-23T09:58:10.461Z,99894.50
2023-05-23T10:01:15.585Z,99912.97
2023-05-23T10:04:26.896Z,99904.09
2023-05-23T10:07:31.823Z,99914.50
2023-05-23T10:10:57.100Z,99921.00
2023-05-23T10:14:12.474Z,99872.09
2023-05-23T10:17:23.499Z,99902.34
2023-05-23T10:20:32.935Z,99899.34
2023-05-23T10:23:38.976Z,99924.72
2023-05-23T10:26:46.494Z,99928.41
2023-05-23T10:29:51.613Z,99910.59
2023-05-23T10:33:00.487Z,99936.13
2023-05-23T10:36:16.593Z,99933.34
2023-05-23T10:39:37.848Z,99927.63
2023-05-23T10:42:55.790Z,99940.31
2023-05-23T10:46:00.589Z,99942.03
2023-05-23T10:49:12.650Z,99933.38
2023-05-23T10:52:19.013Z,99953.69
2023-05-23T10:55:23.917Z,99953.50
2023-05-23T10:58:32.881Z,99944.53
2023-05-23T11:01:41.350Z,99941.38
2023-05-23T11:04:46.761Z,99925.69
2023-05-23T11:08:43.151Z,99920.41
2023-05-23T11:11:55.479Z,99966.66
2023-05-23T11:15:00.174Z,99962.06
2023-05-23T11:18:10.345Z,99933.31
2023-05-23T11:21:17.878Z,99978.72
2023-05-23T11:24:25.997Z,99943.19
2023-05-23T11:27:38.584Z,99960.16
2023-05-23T11:30:43.661Z,99978.84
2023-05-23T11:33:52.076Z,99954.56
2023-05-23T11:36:57.655Z,99976.81
2023-05-23T11:40:29.373Z,99982.94
2023-05-23T11:43:35.969Z,99982.63
2023-05-23T11:46:42.099Z,99984.34
2023-05-23T11:49:49.549Z,99985.00
2023-05-23T11:52:56.760Z,99953.34
2023-05-23T11:56:04.572Z,100005.28
2023-05-23T11:59:09.440Z,99983.22
2023-05-23T12:02:13.891Z,100003.50
2023-05-23T12:05:21.530Z,99998.78
2023-05-23T12:08:28.504Z,99953.19
2023-05-23T12:11:34.162Z,100001.59
2023-05-23T12:14:49.274Z,99999.38
2023-05-23T12:17:57.889Z,99962.50
2023-05-23T12:21:09.101Z,100003.06
2023-05-23T12:24:24.472Z,99995.78
2023-05-23T12:27:38.007Z,99994.75
2023-05-23T12:30:45.446Z,100009.84
2023-05-23T12:33:50.912Z,100007.28
2023-05-23T12:37:10.549Z,100006.84
2023-05-23T12:40:23.573Z,100005.47
2023-05-23T12:43:30.421Z,100004.88
2023-05-23T12:46:34.973Z,100003.47
2023-05-23T12:49:39.848Z,100008.03
2023-05-23T12:52:44.597Z,100010.66
2023-05-23T12:55:49.201Z,100002.03
2023-05-23T12:58:56.924Z,99988.09
2023-05-23T13:02:02.776Z,100010.22
2023-05-23T13:05:07.777Z,100013.50
2023-05-23T13:08:13.309Z,100006.91
2023-05-23T13:11:17.726Z,100023.13
2023-05-23T13:14:25.045Z,100013.13
2023-05-23T13:17:29.778Z,100005.47
2023-05-23T13:20:35.171Z,100017.59
2023-05-23T13:23:39.920Z,100019.22
2023-05-23T13:26:44.364Z,100022.03
2023-05-23T13:29:48.754Z,99998.47
2023-05-23T13:32:52.877Z,99972.25
2023-05-23T13:35:57.162Z,99979.06
2023-05-23T13:39:01.826Z,100000.41
2023-05-23T13:42:06.324Z,99966.34
2023-05-23T13:45:10.689Z,100002.63
2023-05-23T13:48:15.347Z,99996.75
2023-05-23T13:51:19.474Z,99997.72
2023-05-23T13:54:23.438Z,99982.44
2023-05-23T13:57:27.860Z,100000.81
2023-05-23T14:00:31.773Z,100004.75
2023-05-23T14:03:35.991Z,99985.69
2023-05-23T14:06:40.159Z,99966.22
2023-05-23T14:09:44.244Z,99985.06
2023-05-23T14:12:48.460Z,99947.69
2023-05-23T14:15:53.819Z,99975.72
2023-05-23T14:18:58.081Z,100014.50
2023-05-23T14:22:02.351Z,99977.72
2023-05-23T14:25:07.811Z,99993.53
2023-05-23T14:28:12.196Z,99977.56
2023-05-23T14:31:16.190Z,100016.84
2023-05-23T14:34:20.333Z,99999.66
2023-05-23T14:37:24.191Z,99990.59
2023-05-23T14:40:28.289Z,100010.56
2023-05-23T14:43:32.898Z,100003.38
2023-05-23T14:46:37.216Z,99993.97
2023-05-23T14:49:41.563Z,100013.41
2023-05-23T14:52:45.681Z,100014.63
2023-05-23T14:55:49.544Z,99961.25
2023-05-23T14:58:53.555Z,99987.88
2023-05-23T15:01:57.607Z,100012.72
2023-05-23T15:05:01.885Z,100021.19
2023-05-23T15:08:07.660Z,99998.91
2023-05-23T15:11:11.728Z,99987.84
2023-05-23T15:14:15.735Z,100009.94
2023-05-23T15:17:25.871Z,99976.44
2023-05-23T15:20:30.576Z,100007.53
2023-05-23T15:23:35.077Z,100021.84
2023-05-23T15:26:39.704Z,99999.78
2023-05-23T15:29:43.857Z,100009.09
2023-05-23T15:32:48.371Z,99998.72
2023-05-23T15:35:53.786Z,99940.50
2023-05-23T15:38:57.900Z,99987.13
2023-05-23T15:42:01.988Z,99974.22
2023-05-23T15:45:06.564Z,100014.19
2023-05-23T15:48:12.207Z,99947.25
2023-05-23T15:51:17.299Z,99994.22
2023-05-23T15:54:21.836Z,100010.81
2023-05-23T15:57:26.021Z,99971.53
2023-05-23T16:00:30.253Z,99991.31
2023-05-23T16:03:34.336Z,99990.63
2023-05-23T16:06:39.558Z,99973.50
2023-05-23T16:09:43.949Z,99979.53
2023-05-23T16:12:48.142Z,99969.03
2023-05-23T16:15:52.977Z,99992.56
2023-05-23T16:18:56.980Z,99988.03
2023-05-23T16:22:01.300Z,99975.69
2023-05-23T16:25:07.617Z,100000.44
2023-05-23T16:28:12.564Z,99884.19
2023-05-23T16:31:17.729Z,99988.97
2023-05-23T16:34:21.971Z,99992.81
2023-05-23T16:37:26.109Z,100021.66
2023-05-23T16:40:30.178Z,100019.16
2023-05-23T16:43:35.476Z,100019.97
2023-05-23T16:46:39.599Z,100013.81
2023-05-23T16:49:43.806Z,100014.81
2023-05-23T16:52:48.650Z,99996.38
2023-05-23T16:55:53.134Z,100016.47
2023-05-23T16:58:57.524Z,100028.28
2023-05-23T17:02:01.742Z,100024.66
2023-05-23T17:05:06.037Z,100025.69
2023-05-23T17:08:10.112Z,100024.50
2023-05-23T17:11:16.500Z,100002.59
2023-05-23T17:14:23.384Z,100002.72
2023-05-23T17:17:27.706Z,100026.38
2023-05-23T17:20:31.873Z,100025.59
2023-05-23T17:23:35.752Z,100031.09
2023-05-23T17:26:42.934Z,100017.97
2023-05-23T17:29:58.884Z,99848.63
2023-05-23T17:33:04.199Z,100011.59
2023-05-23T17:36:08.646Z,100032.56
2023-05-23T17:39:12.679Z,100001.06
2023-05-23T17:42:16.480Z,100016.63
2023-05-23T17:45:20.562Z,100011.13
2023-05-23T17:48:38.300Z,100010.72
2023-05-23T17:51:48.683Z,100022.59
2023-05-23T17:54:53.134Z,99885.97
2023-05-23T17:57:57.435Z,100017.47
2023-05-23T18:01:01.490Z,100036.97
2023-05-23T18:04:05.791Z,100020.78
2023-05-23T18:07:13.849Z,100024.25
2023-05-23T18:10:18.187Z,100012.06
2023-05-23T18:13:23.855Z,100014.56
2023-05-23T18:16:28.194Z,99999.34
2023-05-23T18:19:32.395Z,100020.25
2023-05-23T18:22:36.985Z,100022.19
2023-05-23T18:25:40.963Z,99989.84
2023-05-23T18:28:44.833Z,100009.50
2023-05-23T18:31:48.827Z,100015.63
2023-05-23T18:34:53.410Z,100017.56
2023-05-23T18:37:58.022Z,100030.38
2023-05-23T18:41:02.133Z,100026.78
2023-05-23T18:44:06.139Z,100028.31
2023-05-23T18:47:10.192Z,100005.66
2023-05-23T18:50:16.234Z,100030.94
2023-05-23T18:53:20.681Z,100021.09
2023-05-23T18:56:25.059Z,100042.41
2023-05-23T18:59:29.119Z,100034.06
2023-05-23T19:02:33.523Z,100037.75
2023-05-23T19:05:37.940Z,99983.38
2023-05-23T19:08:43.547Z,100015.13
2023-05-23T19:11:47.495Z,100038.19
2023-05-23T19:14:51.437Z,100031.66
2023-05-23T19:17:55.836Z,100048.66
2023-05-23T19:20:59.908Z,100022.22
2023-05-23T19:24:08.059Z,100038.81
2023-05-23T19:27:12.188Z,100054.63
2023-05-23T19:30:16.425Z,100057.28
2023-05-23T19:33:20.587Z,100061.41
2023-05-23T19:36:25.099Z,100045.88
2023-05-23T19:39:29.710Z,100048.16
2023-05-23T19:42:34.444Z,100037.31
2023-05-23T19:45:38.640Z,100031.66
2023-05-23T19:48:46.040Z,100055.22
2023-05-23T19:51:50.082Z,100049.97
2023-05-23T19:54:54.189Z,100069.09
2023-05-23T19:57:58.307Z,100068.47
2023-05-23T20:01:02.892Z,100056.50
2023-05-23T20:04:08.001Z,100066.75
2023-05-23T20:07:12.526Z,100074.81
2023-05-23T20:10:16.817Z,100062.69
2023-05-23T20:13:21.009Z,100057.84
2023-05-23T20:16:25.114Z,100071.09
2023-05-23T20:19:29.071Z,100018.22
2023-05-23T20:22:33.242Z,100056.97
2023-05-23T20:25:37.397Z,100069.09
2023-05-23T20:28:41.418Z,100085.28
2023-05-23T20:31:45.529Z,100060.69
2023-05-23T20:34:52.274Z,100077.25
2023-05-23T20:37:56.272Z,100091.00
2023-05-23T20:41:06.967Z,100089.34
2023-05-23T20:44:14.862Z,100086.59
2023-05-23T20:47:18.785Z,100093.22
2023-05-23T20:50:23.400Z,100093.72
2023-05-23T20:53:28.632Z,100071.56
2023-05-23T20:56:33.029Z,100093.50
2023-05-23T20:59:37.909Z,100065.41
2023-05-23T21:02:43.062Z,100096.22
2023-05-23T21:05:47.116Z,100063.97
2023-05-23T21:08:51.142Z,100082.50
2023-05-23T21:11:58.526Z,100087.06
2023-05-23T21:15:02.502Z,100086.38
2023-05-23T21:18:11.428Z,100057.72
2023-05-23T21:21:15.561Z,100090.50
2023-05-23T21:24:19.732Z,100082.19
2023-05-23T21:27:23.775Z,100096.72
2023-05-23T21:30:27.734Z,100097.56
2023-05-23T21:33:31.700Z,100058.41
2023-05-23T21:36:35.586Z,100081.09
2023-05-23T21:39:51.365Z,100083.19
2023-05-23T21:42:57.059Z,100091.66
2023-05-23T21:52:06.785Z,100097.53
2023-05-23T21:55:18.549Z,100059.47
2023-05-23T21:58:25.948Z,100092.63
2023-05-23T22:01:30.128Z,100067.41
2023-05-23T22:04:34.489Z,100102.31
2023-05-23T22:07:38.604Z,100105.66
2023-05-23T22:10:43.830Z,100105.38
2023-05-23T22:13:53.054Z,100109.66
2023-05-23T22:16:59.697Z,100080.56
2023-05-23T22:20:07.822Z,100115.84
2023-05-23T22:23:17.585Z,100111.75
2023-05-23T22:26:22.786Z,100116.94
2023-05-23T22:29:35.474Z,100124.81
2023-05-23T22:32:39.021Z,100117.78
2023-05-23T22:35:45.229Z,100121.09
2023-05-23T22:38:48.660Z,100121.78
2023-05-23T22:41:52.265Z,100120.28
2023-05-23T22:44:55.882Z,100124.75
2023-05-23T22:48:01.619Z,100123.06
2023-05-23T22:51:06.344Z,100126.81
2023-05-23T22:54:09.937Z,100125.94
2023-05-23T22:57:13.543Z,100122.72
2023-05-23T23:00:17.330Z,100120.00
2023-05-23T23:03:21.082Z,100117.69
2023-05-23T23:06:27.561Z,100113.00
2023-05-23T23:09:31.410Z,100120.84
2023-05-23T23:12:34.990Z,100117.53
2023-05-23T23:15:39.519Z,100113.41
2023-05-23T23:18:43.062Z,100103.97
2023-05-23T23:21:46.480Z,100101.06
2023-05-23T23:24:53.617Z,100099.69
2023-05-23T23:27:57.121Z,100094.91
2023-05-23T23:31:00.753Z,100099.53
2023-05-23T23:34:04.387Z,100097.28
2023-05-23T23:37:10.716Z,100097.97
2023-05-23T23:40:14.597Z,100103.59
2023-05-23T23:43:18.232Z,100094.19
2023-05-23T23:46:21.724Z,100098.50
2023-05-23T23:49:25.619Z,100103.28
2023-05-23T23:52:28.976Z,100102.59
2023-05-23T23:55:32.452Z,100111.75
2023-05-23T23:58:36.785Z,100108.22
